Archival Weather

Chicago O'Hare International

Chicago, Illinois (KORD)

Report from: Sunday, March 19, 2023 3:51 PM CDT
Current time: Saturday, July 13, 2024 7:58 PM CDT

Current weather – Weather history – Daily summaries
Weather forecast

Temperature3.9°C (39.0°F)
Wind chill-1.2°C (29.9°F)
Dew point-11.1°C (12.0°F)
Winds 15 kts (7.7 m/s, 17.3 mph) West-Southwest (250°)
Wind gusts 20 kts (10.3 m/s, 23 mph)
Visibility10 mi. (16.1 km)
Clouds Sky clear
Altimeter30.21 in.Hg (1023 mB)
Relative humidity32 %
Density altitude-1,652 ft. (-503 m)
Sea-level pressure102.4 kPa (1024 mB, 30.23 in.Hg)
Remarks System requires maintenance
Automated weather observing station with precipitation discriminator
Pressure falling more slowly
Flight conditions Visual Meteorological Conditions
Raw dataKORD 192051Z 25015G20KT 10SM CLR 04/M11 A3021 RMK AO2 SLP237 T00391111 56020 $
An error has occurred. This application may no longer respond until reloaded. Reload 🗙